Time;durP1;ratioP1;P1;durP2;ratioP2;P2;SDS_P1;SDS_P2;PMS_P1;PMS_P2;Temp;Humidity;BMP_temperature;BMP_pressure;BME280_temperature;BME280_humidity;BME280_pressure;Samples;Min_cycle;Max_cycle;Signal;HPM_P1;HPM_P2
2022/11/16 00:01:23;;;;;;;;;5.00;4.00;;;;;20.97;62.97;99238.75;5020272;28;47568;-55
2022/11/16 00:03:50;;;;;;;;;5.25;5.25;;;;;20.96;62.45;99243.22;5020655;28;45371;-51
2022/11/16 00:06:15;;;;;;;;;6.25;4.25;;;;;20.96;62.91;99248.50;5021819;28;45219;-54
2022/11/16 00:09:20;;;;;;;;;7.50;5.50;;;;;20.97;62.94;99244.06;5020127;28;48244;-55
2022/11/16 00:11:31;;;;;;;;;8.50;6.25;;;;;20.97;62.64;99244.06;5010866;28;45315;-54
2022/11/16 00:13:56;;;;;;;;;5.00;5.00;;;;;20.98;62.66;99243.13;5020429;28;66125;-56
2022/11/16 00:16:22;;;;;;;;;5.25;5.25;;;;;20.97;62.52;99244.06;5020873;28;68265;-53
2022/11/16 00:18:47;;;;;;;;;6.25;5.50;;;;;20.96;62.48;99245.88;5021068;28;53105;-54
2022/11/16 00:21:13;;;;;;;;;5.75;5.75;;;;;20.96;62.62;99243.22;5036709;28;45387;-54
2022/11/16 00:23:38;;;;;;;;;4.00;4.00;;;;;20.96;62.45;99243.22;5020497;28;58637;-52
2022/11/16 00:26:08;;;;;;;;;6.00;5.75;;;;;20.95;62.56;99244.16;5019221;28;62486;-53
2022/11/16 00:28:33;;;;;;;;;8.50;6.50;;;;;20.95;62.58;99246.81;5021227;28;46291;-53
2022/11/16 00:31:00;;;;;;;;;5.00;5.00;;;;;20.95;62.48;99235.34;5019616;28;53535;-54
2022/11/16 00:33:25;;;;;;;;;6.75;6.25;;;;;20.95;62.33;99243.31;5021457;28;45353;-54
2022/11/16 00:35:50;;;;;;;;;6.50;6.50;;;;;20.93;62.79;99243.38;5021402;28;45578;-55
2022/11/16 00:38:16;;;;;;;;;9.25;6.50;;;;;20.92;62.35;99243.47;5019949;28;55904;-54
2022/11/16 00:40:41;;;;;;;;;4.25;3.00;;;;;20.94;62.69;99254.81;5020283;28;65391;-55
2022/11/16 00:43:07;;;;;;;;;6.25;5.75;;;;;20.93;62.87;99238.06;5020662;28;63785;-55
2022/11/16 00:45:32;;;;;;;;;7.25;6.75;;;;;20.93;62.28;99239.84;5018715;28;64426;-55
2022/11/16 00:47:57;;;;;;;;;8.00;6.50;;;;;20.91;62.57;99237.31;5020694;28;45295;-53
2022/11/16 00:50:23;;;;;;;;;6.25;6.00;;;;;20.91;62.11;99232.00;5018805;28;53342;-55
2022/11/16 00:52:48;;;;;;;;;6.75;5.50;;;;;20.92;62.18;99240.81;5020941;28;45326;-55
2022/11/16 00:55:13;;;;;;;;;6.75;6.75;;;;;20.90;62.50;99235.59;5018926;28;67017;-54
2022/11/16 00:57:39;;;;;;;;;6.00;5.00;;;;;20.91;62.53;99231.16;5020921;28;46125;-52
2022/11/16 01:00:05;;;;;;;;;6.75;5.25;;;;;20.91;61.90;99236.44;5019682;28;45379;-54
2022/11/16 01:02:30;;;;;;;;;6.75;6.75;;;;;20.89;62.07;99229.44;5020800;28;45165;-55
2022/11/16 01:04:56;;;;;;;;;6.50;6.50;;;;;20.88;61.94;99242.78;5019449;28;64332;-54
2022/11/16 01:07:21;;;;;;;;;7.25;6.00;;;;;20.88;61.96;99245.44;5020301;28;51308;-55
2022/11/16 01:09:46;;;;;;;;;6.75;6.00;;;;;20.88;62.10;99250.75;5017802;28;53374;-54
2022/11/16 01:12:12;;;;;;;;;5.00;4.50;;;;;20.87;62.41;99255.19;5020149;28;65154;-51
2022/11/16 01:14:42;;;;;;;;;7.75;5.00;;;;;20.87;62.54;99243.75;5019387;28;65599;-54
2022/11/16 01:17:08;;;;;;;;;7.25;5.75;;;;;20.86;62.03;99239.38;5020409;28;45449;-54
2022/11/16 01:19:33;;;;;;;;;6.00;6.00;;;;;20.85;62.15;99238.53;5019332;28;45382;-54
2022/11/16 01:21:59;;;;;;;;;6.50;5.50;;;;;20.86;61.89;99239.38;5018505;28;61533;-53
2022/11/16 01:24:24;;;;;;;;;6.00;5.75;;;;;20.86;62.25;99242.88;5020565;28;45455;-52
2022/11/16 01:26:50;;;;;;;;;7.50;5.25;;;;;20.85;61.81;99237.69;5019200;28;45300;-50
2022/11/16 01:29:15;;;;;;;;;5.75;4.50;;;;;20.84;61.96;99239.44;5019166;28;56631;-54
2022/11/16 01:31:40;;;;;;;;;6.50;5.25;;;;;20.83;62.00;99237.72;5019420;28;45593;-55
2022/11/16 01:34:06;;;;;;;;;6.00;6.00;;;;;20.83;61.74;99250.13;5019008;28;63088;-54
2022/11/16 01:36:32;;;;;;;;;5.00;5.00;;;;;20.83;61.87;99236.88;5018585;28;63424;-55
2022/11/16 01:38:57;;;;;;;;;4.75;4.75;;;;;20.82;62.04;99251.94;5019051;28;45303;-55
2022/11/16 01:41:23;;;;;;;;;7.25;5.25;;;;;20.82;61.81;99241.34;5019363;28;65603;-54
2022/11/16 01:43:51;;;;;;;;;5.00;5.00;;;;;20.83;61.46;99240.38;5018779;28;48866;-52
2022/11/16 01:46:17;;;;;;;;;4.50;4.25;;;;;20.83;61.92;99247.50;5016828;28;45517;-54
2022/11/16 01:48:42;;;;;;;;;4.75;4.00;;;;;20.82;61.48;99243.97;5020076;28;45376;-54
2022/11/16 01:51:07;;;;;;;;;7.50;6.00;;;;;20.82;61.61;99251.94;5018575;28;54510;-54
2022/11/16 01:53:33;;;;;;;;;6.00;5.00;;;;;20.82;61.56;99240.47;5018259;28;62205;-54
2022/11/16 01:55:58;;;;;;;;;4.25;4.25;;;;;20.82;61.76;99245.78;5018190;28;64933;-54
2022/11/16 01:58:23;;;;;;;;;5.50;5.00;;;;;20.82;61.89;99241.34;5020051;28;45402;-54
2022/11/16 02:00:49;;;;;;;;;10.00;7.00;;;;;20.81;61.62;99239.63;5017414;28;45380;-55
2022/11/16 02:03:18;;;;;;;;;8.00;6.50;;;;;20.81;61.98;99230.81;5019998;28;45510;-55
2022/11/16 02:06:07;;;;;;;;;6.75;5.50;;;;;20.80;61.46;99237.91;5019507;28;45270;-53
2022/11/16 02:11:55;;;;;;;;;6.00;5.00;;;;;20.77;61.67;99227.50;5019567;28;45267;-54
2022/11/16 02:14:35;;;;;;;;;3.00;3.00;;;;;20.77;61.25;99235.44;5021670;28;45547;-54
2022/11/16 02:17:09;;;;;;;;;2.00;2.00;;;;;20.77;61.44;99234.59;5022393;28;45315;-55
2022/11/16 02:19:43;;;;;;;;;6.25;5.00;;;;;20.76;61.39;99232.84;5005873;28;45339;-55
2022/11/16 02:22:27;;;;;;;;;3.50;3.50;;;;;20.76;61.44;99224.91;5023231;28;45340;-54
2022/11/16 02:25:11;;;;;;;;;6.00;5.00;;;;;20.76;61.12;99222.25;5023256;28;45648;-54
2022/11/16 02:27:46;;;;;;;;;6.00;4.00;;;;;20.75;61.49;99234.66;5005118;28;45862;-53
2022/11/16 02:30:11;;;;;;;;;4.00;4.00;;;;;20.75;61.42;99225.84;5026962;28;46133;-54
2022/11/16 02:32:48;;;;;;;;;6.75;5.00;;;;;20.74;61.45;99227.66;5020711;28;45462;-55
2022/11/16 02:35:17;;;;;;;;;2.75;2.50;;;;;20.74;61.78;99238.25;5005830;28;45309;-53
2022/11/16 02:37:55;;;;;;;;;5.25;3.00;;;;;20.75;61.73;99236.47;5005499;28;46509;-55
2022/11/16 02:40:21;;;;;;;;;6.50;4.50;;;;;20.74;61.40;99227.66;5004223;28;45885;-54
2022/11/16 02:43:02;;;;;;;;;7.50;5.00;;;;;20.75;61.47;99231.16;5005363;28;45337;-54
2022/11/16 02:45:28;;;;;;;;;5.00;4.50;;;;;20.74;61.58;99222.34;5021348;28;45543;-55
2022/11/16 02:47:56;;;;;;;;;5.50;4.75;;;;;20.74;61.48;99222.34;5021851;28;46373;-54
2022/11/16 02:50:22;;;;;;;;;4.00;4.00;;;;;20.74;61.55;99224.16;5021718;28;45407;-54
2022/11/16 02:52:47;;;;;;;;;7.75;4.75;;;;;20.73;61.79;99225.94;5021668;28;45462;-52
2022/11/16 02:55:12;;;;;;;;;4.25;3.75;;;;;20.73;61.72;99219.78;5019680;28;65002;-54
2022/11/16 02:57:48;;;;;;;;;5.75;5.25;;;;;20.73;61.76;99215.34;5022131;28;60872;-54
2022/11/16 03:00:24;;;;;;;;;5.00;4.00;;;;;20.74;61.53;99232.94;5022914;28;45303;-53
2022/11/16 03:02:55;;;;;;;;;8.00;5.75;;;;;20.73;61.61;99220.63;5005382;28;45335;-55
2022/11/16 03:05:30;;;;;;;;;4.75;4.00;;;;;20.74;61.55;99221.50;5021474;28;45381;-54
2022/11/16 03:08:05;;;;;;;;;5.00;4.00;;;;;20.73;61.48;99220.63;5020483;28;47046;-52
2022/11/16 03:13:19;;;;;;;;;4.00;4.00;;;;;20.72;61.41;99210.97;5021277;28;45318;-52
2022/11/16 03:15:45;;;;;;;;;5.75;4.00;;;;;20.72;61.31;99208.34;5003361;28;55690;-54
2022/11/16 03:18:11;;;;;;;;;3.00;2.75;;;;;20.72;61.43;99204.81;5020221;28;67966;-53
2022/11/16 03:20:37;;;;;;;;;3.75;3.25;;;;;20.71;61.30;99206.63;4987788;28;64991;-55
2022/11/16 03:23:04;;;;;;;;;4.00;4.00;;;;;20.70;61.69;99206.72;5020340;28;45465;-55
2022/11/16 03:25:31;;;;;;;;;4.50;4.50;;;;;20.70;61.38;99201.41;5020905;28;45308;-55
2022/11/16 03:28:06;;;;;;;;;4.25;3.25;;;;;20.70;61.32;99206.72;5004328;28;47296;-55
2022/11/16 03:30:36;;;;;;;;;3.00;2.75;;;;;20.69;61.34;99199.72;5021165;28;45299;-54
2022/11/16 03:33:13;;;;;;;;;5.25;4.00;;;;;20.69;61.40;99194.41;5021014;28;45341;-56
2022/11/16 03:35:48;;;;;;;;;3.25;3.25;;;;;20.68;61.42;99185.59;5022328;28;45482;-55
2022/11/16 03:38:13;;;;;;;;;3.00;2.50;;;;;20.68;61.10;99193.56;5004604;28;46379;-56
2022/11/16 03:40:39;;;;;;;;;4.75;4.75;;;;;20.68;61.45;99182.09;5020279;28;64091;-55
2022/11/16 03:43:05;;;;;;;;;5.00;4.00;;;;;20.69;61.25;99191.75;5004142;28;50714;-55
2022/11/16 03:45:30;;;;;;;;;4.75;4.00;;;;;20.67;60.92;99183.88;5020612;28;46618;-56
2022/11/16 03:47:56;;;;;;;;;4.00;3.00;;;;;20.69;60.95;99189.09;5004309;28;47816;-56
2022/11/16 03:50:21;;;;;;;;;5.00;4.00;;;;;20.67;61.12;99169.75;5021110;28;65189;-56
2022/11/16 03:52:46;;;;;;;;;4.00;4.00;;;;;20.67;61.06;99173.25;5021924;28;45236;-55
2022/11/16 03:55:12;;;;;;;;;4.25;4.25;;;;;20.67;61.23;99173.25;5021291;28;62401;-56
2022/11/16 03:57:37;;;;;;;;;3.25;2.00;;;;;20.67;61.49;99170.59;5021335;28;59634;-55
2022/11/16 04:00:04;;;;;;;;;2.00;2.00;;;;;20.68;61.37;99174.16;5020793;28;47168;-54
2022/11/16 04:02:29;;;;;;;;;4.00;3.00;;;;;20.66;61.77;99171.56;5021817;28;45477;-53
2022/11/16 04:24:34;;;;;;;;;4.50;4.00;;;;;20.63;60.97;99160.28;5020722;28;45255;-56
2022/11/16 04:29:45;;;;;;;;;4.50;3.50;;;;;20.61;61.16;99149.78;5019550;28;45871;-56
2022/11/16 04:37:48;;;;;;;;;5.25;3.00;;;;;20.60;61.26;99156.03;5021034;28;45146;-57
2022/11/16 04:40:21;;;;;;;;;2.50;2.00;;;;;20.61;61.24;99149.78;5021237;28;46140;-56
2022/11/16 04:43:00;;;;;;;;;2.75;1.50;;;;;20.59;61.18;99149.00;5019439;28;45348;-56
2022/11/16 04:48:10;;;;;;;;;4.00;3.00;;;;;20.59;61.02;99147.22;5020873;28;45280;-57
2022/11/16 04:50:35;;;;;;;;;3.25;3.25;;;;;20.60;61.27;99154.22;5019967;28;46073;-55
2022/11/16 04:53:00;;;;;;;;;3.00;2.75;;;;;20.61;61.34;99147.13;5019468;28;47507;-57
2022/11/16 04:55:26;;;;;;;;;3.75;3.00;;;;;20.62;61.09;99161.22;5020512;28;45344;-57
2022/11/16 04:57:51;;;;;;;;;3.00;3.00;;;;;20.61;60.96;99141.81;5018527;28;62155;-57
2022/11/16 05:00:17;;;;;;;;;3.50;1.50;;;;;20.62;61.08;99146.19;5035965;28;53794;-57
2022/11/16 05:02:42;;;;;;;;;2.00;1.50;;;;;20.63;61.31;99141.72;5020733;28;45310;-57
2022/11/16 05:05:08;;;;;;;;;3.25;3.00;;;;;20.63;61.12;99142.59;5020724;28;50082;-57
2022/11/16 05:07:33;;;;;;;;;2.00;2.00;;;;;20.64;61.09;99146.09;5019991;28;60881;-55
2022/11/16 05:09:59;;;;;;;;;3.00;2.25;;;;;20.64;61.11;99146.94;5021472;28;45332;-56
2022/11/16 05:12:26;;;;;;;;;1.75;1.75;;;;;20.65;61.21;99145.13;5019433;28;52713;-55
2022/11/16 05:14:52;;;;;;;;;2.25;1.75;;;;;20.65;61.48;99148.63;5020767;28;45506;-57
2022/11/16 05:17:17;;;;;;;;;2.00;2.00;;;;;20.66;60.97;99147.69;5020422;28;45330;-56
2022/11/16 05:22:27;;;;;;;;;2.50;2.25;;;;;20.68;61.30;99144.97;5019438;28;45294;-56
2022/11/16 05:24:53;;;;;;;;;4.00;2.00;;;;;20.68;61.29;99143.19;5020680;28;45413;-57
2022/11/16 05:27:19;;;;;;;;;2.75;2.25;;;;;20.70;61.05;99130.69;5019200;28;45322;-58
2022/11/16 05:29:45;;;;;;;;;1.00;1.00;;;;;20.69;61.25;99128.97;5019242;28;45425;-57
2022/11/16 05:32:10;;;;;;;;;2.00;2.00;;;;;20.71;61.10;99131.53;5018942;28;45204;-56
2022/11/16 05:34:36;;;;;;;;;4.00;1.00;;;;;20.71;61.09;99134.19;5002299;28;45455;-57
2022/11/16 05:37:02;;;;;;;;;4.00;2.00;;;;;20.71;61.25;99132.41;5020165;28;45327;-57
2022/11/16 05:39:27;;;;;;;;;1.50;1.00;;;;;20.72;61.32;99131.44;5019953;28;60982;-57
2022/11/16 05:41:53;;;;;;;;;3.00;2.00;;;;;20.72;60.94;99128.78;5016989;28;66070;-57
2022/11/16 05:44:19;;;;;;;;;2.75;2.00;;;;;20.74;61.05;99134.00;5018519;28;46375;-58
2022/11/16 05:46:44;;;;;;;;;2.50;2.00;;;;;20.73;61.40;99127.84;5018463;28;68146;-57
2022/11/16 05:49:10;;;;;;;;;2.00;2.00;;;;;20.74;60.99;99129.56;5017288;28;46022;-57
2022/11/16 05:51:36;;;;;;;;;1.00;0.00;;;;;20.75;61.22;99135.72;5018628;28;45300;-57
2022/11/16 05:54:02;;;;;;;;;1.75;1.00;;;;;20.77;61.49;99136.50;5020306;28;45301;-57
2022/11/16 05:56:27;;;;;;;;;3.25;1.00;;;;;20.76;61.19;99132.09;5019338;28;45457;-57
2022/11/16 05:58:53;;;;;;;;;4.25;2.00;;;;;20.76;61.53;99135.66;5019007;28;45330;-57
2022/11/16 06:01:18;;;;;;;;;3.00;2.00;;;;;20.77;61.38;99137.34;5019602;28;45558;-57
2022/11/16 06:03:44;;;;;;;;;4.00;2.00;;;;;20.77;61.44;99132.03;5019915;28;45229;-58
2022/11/16 06:06:09;;;;;;;;;2.50;2.25;;;;;20.78;60.98;99135.56;5016085;28;68105;-57
2022/11/16 06:08:35;;;;;;;;;3.75;2.75;;;;;20.77;60.91;99134.69;5017842;28;57381;-58
2022/11/16 06:11:04;;;;;;;;;2.50;2.00;;;;;20.77;61.22;99132.03;4982858;28;45604;-58
2022/11/16 06:13:30;;;;;;;;;3.00;2.50;;;;;20.77;61.15;99139.16;5017395;28;45512;-58
2022/11/16 06:15:56;;;;;;;;;1.25;1.25;;;;;20.77;60.84;99132.03;5002002;28;45936;-58
2022/11/16 06:18:21;;;;;;;;;3.00;2.00;;;;;20.79;60.80;99145.22;5017921;28;68759;-57
2022/11/16 06:20:46;;;;;;;;;2.25;2.25;;;;;20.80;61.20;99144.25;5016549;28;69804;-57
2022/11/16 06:23:12;;;;;;;;;1.25;1.25;;;;;20.81;60.95;99141.50;5017751;28;45504;-58
2022/11/16 06:25:38;;;;;;;;;1.00;1.00;;;;;20.82;60.95;99140.56;5017642;28;63234;-57
2022/11/16 06:28:03;;;;;;;;;2.25;1.75;;;;;20.82;61.28;99137.91;5019396;28;46374;-57
2022/11/16 06:30:28;;;;;;;;;2.25;1.50;;;;;20.83;61.01;99139.63;5017749;28;69589;-57
2022/11/16 06:32:54;;;;;;;;;1.00;1.00;;;;;20.83;61.20;99136.97;5017665;28;65749;-57
2022/11/16 06:35:19;;;;;;;;;1.00;1.00;;;;;20.85;61.04;99135.09;5017608;28;65114;-58
2022/11/16 06:37:45;;;;;;;;;1.00;1.00;;;;;20.87;61.19;99132.34;5018067;28;45980;-57
2022/11/16 06:40:10;;;;;;;;;4.00;1.00;;;;;20.87;61.01;99127.91;5017206;28;66321;-57
2022/11/16 06:42:36;;;;;;;;;3.50;3.00;;;;;20.88;60.85;99128.75;5001784;28;45446;-56
2022/11/16 06:45:01;;;;;;;;;2.00;1.50;;;;;20.89;61.34;99130.47;5019494;28;45322;-55
2022/11/16 06:47:26;;;;;;;;;5.00;2.75;;;;;20.89;61.55;99123.34;4981891;28;48129;-56
2022/11/16 06:49:52;;;;;;;;;3.75;1.75;;;;;20.91;61.45;99125.06;5011428;28;62401;-56
2022/11/16 06:52:17;;;;;;;;;1.75;1.75;;;;;20.91;60.65;99117.09;5018563;28;67266;-56
2022/11/16 06:54:42;;;;;;;;;3.25;2.25;;;;;20.92;61.01;99118.81;5016096;28;65911;-56
2022/11/16 06:57:08;;;;;;;;;5.75;2.00;;;;;20.91;61.32;99125.06;5018869;28;50558;-55
2022/11/16 06:59:33;;;;;;;;;3.75;1.75;;;;;20.91;61.16;99131.22;5021957;28;62929;-57
2022/11/16 07:01:59;;;;;;;;;4.00;2.75;;;;;20.91;61.59;99123.25;5021156;28;45457;-54
2022/11/16 07:04:24;;;;;;;;;3.00;2.00;;;;;20.92;61.50;99113.50;5022540;28;45311;-53
2022/11/16 07:06:49;;;;;;;;;3.25;2.00;;;;;20.92;61.37;99122.31;5019906;28;71336;-55
2022/11/16 07:09:15;;;;;;;;;1.00;1.00;;;;;20.94;61.49;99124.88;5022575;28;45419;-55
2022/11/16 07:11:40;;;;;;;;;3.75;2.00;;;;;20.95;61.77;99126.59;5022718;28;45319;-53
2022/11/16 07:14:06;;;;;;;;;2.00;2.00;;;;;20.94;61.97;99125.75;5022021;28;59587;-52
2022/11/16 07:16:34;;;;;;;;;2.00;2.00;;;;;20.95;61.38;99132.75;5022030;28;62883;-54
2022/11/16 07:18:59;;;;;;;;;2.75;2.00;;;;;20.95;61.83;99139.88;5022518;28;45237;-53
2022/11/16 07:21:25;;;;;;;;;4.00;3.00;;;;;20.94;61.55;99144.31;5022874;28;45457;-53
2022/11/16 07:23:52;;;;;;;;;1.75;1.75;;;;;20.93;61.73;99149.69;5022027;28;45556;-54
2022/11/16 07:26:17;;;;;;;;;2.00;2.00;;;;;20.93;61.75;99147.03;5022355;28;46568;-52
2022/11/16 07:28:42;;;;;;;;;3.00;1.75;;;;;20.92;61.81;99143.53;5004520;28;45326;-53
2022/11/16 07:31:09;;;;;;;;;2.00;1.00;;;;;20.93;61.81;99147.03;5020812;28;53362;-54
2022/11/16 07:33:34;;;;;;;;;4.00;3.00;;;;;20.92;61.67;99140.03;5021173;28;45353;-52
2022/11/16 07:36:11;;;;;;;;;2.00;1.50;;;;;20.94;61.66;99143.44;5022201;28;45382;-60
2022/11/16 07:38:36;;;;;;;;;2.75;2.00;;;;;20.96;61.96;99133.63;5022313;28;45318;-57
2022/11/16 07:41:06;;;;;;;;;2.75;2.00;;;;;20.99;61.86;99141.38;5021537;28;57612;-58
2022/11/16 07:43:33;;;;;;;;;5.25;2.00;;;;;21.00;61.66;99137.78;5022243;28;45601;-58
2022/11/16 07:46:02;;;;;;;;;2.00;2.00;;;;;21.01;61.71;99143.00;5022134;28;46351;-57
2022/11/16 07:48:28;;;;;;;;;4.00;3.00;;;;;21.03;61.72;99141.13;5020892;28;45328;-58
2022/11/16 07:50:58;;;;;;;;;4.25;2.00;;;;;21.03;61.98;99132.31;5020973;28;45231;-58
2022/11/16 07:53:23;;;;;;;;;2.75;2.00;;;;;21.04;61.71;99126.06;5004836;28;45372;-59
2022/11/16 07:55:52;;;;;;;;;3.75;3.00;;;;;21.04;61.56;99132.22;5021864;28;45411;-58
2022/11/16 07:58:18;;;;;;;;;3.00;2.25;;;;;21.05;61.47;99135.72;5020716;28;45334;-58
2022/11/16 08:00:43;;;;;;;;;3.00;2.00;;;;;21.04;61.40;99134.03;5020642;28;45255;-58
2022/11/16 08:03:09;;;;;;;;;4.00;1.50;;;;;21.04;61.80;99139.31;5020455;28;45247;-58
2022/11/16 08:05:34;;;;;;;;;5.00;3.00;;;;;21.03;61.10;99142.94;5021713;28;45317;-57
2022/11/16 08:08:00;;;;;;;;;4.00;4.00;;;;;21.03;61.39;99137.63;5020386;28;45248;-57
2022/11/16 08:10:25;;;;;;;;;3.00;3.00;;;;;21.02;61.34;99138.53;5020615;28;59260;-58
2022/11/16 08:12:50;;;;;;;;;4.00;2.75;;;;;21.00;61.59;99140.44;5021896;28;45469;-57
2022/11/16 08:15:16;;;;;;;;;4.25;3.25;;;;;21.00;61.65;99138.63;5019746;28;66151;-58
2022/11/16 08:17:41;;;;;;;;;2.00;2.00;;;;;21.00;61.36;99137.78;5020775;28;71136;-57
2022/11/16 08:20:08;;;;;;;;;2.75;2.50;;;;;21.00;61.30;99135.97;5019830;28;64063;-57
2022/11/16 08:22:34;;;;;;;;;5.00;3.00;;;;;21.01;61.21;99134.19;5020228;28;45414;-57
2022/11/16 08:24:59;;;;;;;;;3.00;2.00;;;;;21.00;61.17;99132.47;5003892;28;47207;-58
2022/11/16 08:27:24;;;;;;;;;4.50;3.00;;;;;20.99;61.52;99142.22;5021083;28;58356;-56
2022/11/16 08:29:50;;;;;;;;;4.50;2.75;;;;;21.01;61.23;99144.78;5020271;28;45279;-56
2022/11/16 08:32:15;;;;;;;;;2.00;2.00;;;;;21.01;61.08;99142.13;5019449;28;65570;-56
2022/11/16 08:34:41;;;;;;;;;2.50;2.50;;;;;21.02;61.02;99141.19;5019461;28;58540;-58
2022/11/16 08:37:06;;;;;;;;;4.25;3.00;;;;;21.01;61.18;99145.63;5020053;28;45188;-57
2022/11/16 08:39:31;;;;;;;;;4.50;3.00;;;;;21.01;61.33;99145.63;5021150;28;48390;-57
2022/11/16 08:41:57;;;;;;;;;4.75;3.25;;;;;21.01;61.07;99137.69;5020903;28;54348;-57
2022/11/16 08:44:22;;;;;;;;;3.00;2.00;;;;;21.00;60.97;99141.28;5019894;28;48262;-57
2022/11/16 08:46:47;;;;;;;;;3.00;3.00;;;;;21.02;61.07;99138.53;5019670;28;54965;-56
2022/11/16 08:49:13;;;;;;;;;3.50;3.00;;;;;21.01;61.13;99140.34;5020046;28;45276;-57
2022/11/16 08:51:38;;;;;;;;;3.50;3.00;;;;;21.01;61.10;99143.00;5019654;28;48433;-57
2022/11/16 08:54:05;;;;;;;;;2.00;2.00;;;;;21.03;61.39;99138.47;5019680;28;50062;-57
2022/11/16 08:56:30;;;;;;;;;4.00;2.00;;;;;21.03;61.18;99137.63;5019924;28;45462;-57
2022/11/16 08:58:55;;;;;;;;;5.25;3.25;;;;;21.04;61.19;99140.19;5019359;28;55070;-56
2022/11/16 09:01:23;;;;;;;;;3.25;3.00;;;;;21.05;61.26;99131.28;5019600;28;45335;-58
2022/11/16 09:03:48;;;;;;;;;2.75;2.25;;;;;21.06;61.37;99130.31;5019577;28;45540;-57
2022/11/16 09:06:14;;;;;;;;;4.00;2.75;;;;;21.07;61.45;99120.56;5020882;28;45318;-57
2022/11/16 09:08:40;;;;;;;;;6.50;5.25;;;;;21.10;61.48;99125.66;5019290;28;45413;-56
2022/11/16 09:11:07;;;;;;;;;3.50;1.75;;;;;21.10;61.30;99113.25;5019871;28;45248;-57
2022/11/16 09:13:32;;;;;;;;;3.00;3.00;;;;;21.11;61.94;99124.72;5003046;28;45385;-58
2022/11/16 09:15:58;;;;;;;;;3.50;2.75;;;;;21.11;61.55;99114.09;5019712;28;46539;-58
2022/11/16 09:18:24;;;;;;;;;5.75;3.00;;;;;21.12;61.55;99119.34;5019461;28;45287;-58
2022/11/16 09:20:49;;;;;;;;;4.75;3.25;;;;;21.13;61.38;99122.84;5019064;28;45461;-58
2022/11/16 09:23:15;;;;;;;;;3.00;2.00;;;;;21.14;61.65;99132.53;5019513;28;53553;-56
2022/11/16 09:25:41;;;;;;;;;2.75;2.25;;;;;21.15;61.69;99128.91;5020717;28;45217;-58
2022/11/16 09:28:07;;;;;;;;;2.50;2.00;;;;;21.14;61.75;99120.09;5019288;28;45387;-58
2022/11/16 09:30:32;;;;;;;;;4.75;3.50;;;;;21.16;61.09;99117.34;5020693;28;45272;-57
2022/11/16 09:32:58;;;;;;;;;2.25;2.00;;;;;21.16;61.51;99114.69;5019150;28;45489;-56
2022/11/16 09:35:23;;;;;;;;;6.00;3.25;;;;;21.16;61.73;99115.56;5019238;28;45330;-57
2022/11/16 09:37:49;;;;;;;;;2.50;2.00;;;;;21.17;61.71;99119.91;5002608;28;45433;-57
2022/11/16 09:40:15;;;;;;;;;3.00;3.00;;;;;21.17;61.59;99114.59;5019357;28;45270;-57
2022/11/16 09:42:47;;;;;;;;;4.50;4.50;;;;;21.17;61.38;99111.94;5018856;28;45275;-53
2022/11/16 09:45:23;;;;;;;;;2.25;1.75;;;;;21.20;61.61;99097.66;5002562;28;45586;-57
2022/11/16 09:47:51;;;;;;;;;2.00;2.00;;;;;21.20;61.24;99097.66;5020281;28;45334;-55
2022/11/16 09:50:50;;;;;;;;;2.00;2.00;;;;;21.21;61.39;99091.41;5002774;28;45810;-56
2022/11/16 09:53:18;;;;;;;;;4.00;2.25;;;;;21.21;61.32;99087.91;5020130;28;46127;-55
2022/11/16 09:55:48;;;;;;;;;4.00;3.00;;;;;21.22;61.41;99084.31;5018907;28;45286;-54
2022/11/16 09:58:16;;;;;;;;;4.25;3.00;;;;;21.22;61.45;99093.13;5019139;28;45294;-54
2022/11/16 10:00:44;;;;;;;;;4.50;2.50;;;;;21.23;61.62;99097.47;5018748;28;45334;-56
2022/11/16 10:03:12;;;;;;;;;4.50;4.50;;;;;21.24;61.46;99096.53;5019935;28;45369;-57
2022/11/16 10:05:43;;;;;;;;;7.75;4.25;;;;;21.24;61.45;99099.19;5018872;28;45314;-55
2022/11/16 10:08:35;;;;;;;;;3.50;3.00;;;;;21.26;61.23;99091.97;5002796;28;45446;-55
2022/11/16 10:11:04;;;;;;;;;5.00;4.00;;;;;21.27;61.35;99082.25;5015134;28;46949;-55
2022/11/16 10:13:50;;;;;;;;;4.00;2.50;;;;;21.27;60.94;99072.47;5019961;28;46130;-55
2022/11/16 10:16:31;;;;;;;;;3.25;2.25;;;;;21.27;59.52;99084.91;5018644;28;45289;-54
2022/11/16 10:19:06;;;;;;;;;2.00;2.00;;;;;21.16;58.08;99098.78;5018614;28;45507;-56
2022/11/16 10:21:36;;;;;;;;;5.50;4.50;;;;;21.03;57.33;99101.34;5018350;28;45284;-56
2022/11/16 10:24:30;;;;;;;;;1.50;1.50;;;;;20.89;56.86;99103.94;5018741;28;46632;-55
2022/11/16 10:27:08;;;;;;;;;2.25;1.00;;;;;20.75;56.73;99111.84;5018751;28;45332;-54
2022/11/16 10:29:40;;;;;;;;;3.00;2.00;;;;;20.61;56.64;99115.31;5002138;28;45285;-55
2022/11/16 10:32:27;;;;;;;;;2.25;1.00;;;;;20.52;56.19;99110.53;5002543;28;45395;-55
2022/11/16 10:35:10;;;;;;;;;1.25;1.25;;;;;20.42;56.02;99101.38;5023101;28;47141;-53
2022/11/16 10:37:38;;;;;;;;;3.75;2.00;;;;;20.32;55.87;99115.13;5023090;28;45465;-54
2022/11/16 10:40:34;;;;;;;;;2.75;1.00;;;;;20.23;55.48;99110.34;5022241;28;45216;-53
2022/11/16 10:43:03;;;;;;;;;1.00;1.00;;;;;20.15;55.30;99103.78;5021617;28;45644;-51
2022/11/16 10:45:38;;;;;;;;;2.00;1.00;;;;;20.07;55.80;99103.34;5023162;28;45542;-53
2022/11/16 10:48:13;;;;;;;;;3.25;2.00;;;;;20.04;55.61;99109.69;5021741;28;45324;-53
2022/11/16 10:50:44;;;;;;;;;2.25;1.25;;;;;20.01;55.71;99099.28;5005267;28;45398;-53
2022/11/16 10:53:32;;;;;;;;;2.00;1.25;;;;;20.01;55.60;99099.28;5005107;28;45426;-52
2022/11/16 10:56:16;;;;;;;;;2.75;1.75;;;;;20.00;56.08;99084.31;5022899;28;45474;-53
2022/11/16 10:59:07;;;;;;;;;2.00;2.00;;;;;20.01;56.19;99073.63;5016280;28;45417;-51
2022/11/16 11:01:34;;;;;;;;;2.00;1.75;;;;;20.02;55.89;99066.56;5021714;28;45247;-54
2022/11/16 11:04:25;;;;;;;;;2.50;1.25;;;;;20.04;56.02;99069.97;5021445;28;45433;-55
2022/11/16 11:06:55;;;;;;;;;5.50;1.50;;;;;20.05;55.83;99074.31;5022511;28;46101;-54
2022/11/16 11:09:36;;;;;;;;;2.50;1.75;;;;;20.05;55.72;99067.22;5021503;28;45188;-52
2022/11/16 11:15:09;;;;;;;;;3.25;2.50;;;;;20.08;55.81;99068.00;5022789;28;45233;-53
2022/11/16 11:17:35;;;;;;;;;1.00;1.00;;;;;20.10;55.54;99072.28;5022649;28;45994;-55
2022/11/16 11:20:03;;;;;;;;;4.25;1.75;;;;;20.11;55.37;99071.31;5021171;28;45328;-53
2022/11/16 11:22:29;;;;;;;;;3.50;1.00;;;;;20.12;55.68;99069.53;5022529;28;45379;-51
2022/11/16 11:24:55;;;;;;;;;1.00;1.00;;;;;20.12;55.71;99059.78;5021266;28;45456;-51
2022/11/16 11:27:30;;;;;;;;;2.25;2.25;;;;;20.14;55.65;99052.59;5004488;28;59687;-54
2022/11/16 11:29:57;;;;;;;;;2.00;2.00;;;;;20.16;55.35;99045.44;5004617;28;45383;-50
2022/11/16 11:32:24;;;;;;;;;4.00;2.00;;;;;20.17;55.31;99033.06;5005170;28;45267;-54
2022/11/16 11:34:52;;;;;;;;;2.75;1.25;;;;;20.18;55.61;99035.59;5021064;28;45299;-54
2022/11/16 11:37:26;;;;;;;;;2.00;2.00;;;;;20.21;55.38;99037.22;5004535;28;45299;-54
2022/11/16 11:40:24;;;;;;;;;2.25;2.25;;;;;20.22;55.43;99049.53;5021029;28;45310;-54
2022/11/16 11:42:53;;;;;;;;;2.50;1.00;;;;;20.21;55.42;99046.03;5022122;28;45380;-54
2022/11/16 11:45:20;;;;;;;;;2.00;1.25;;;;;20.22;55.27;99045.06;5021229;28;45584;-55
2022/11/16 11:47:58;;;;;;;;;3.75;1.50;;;;;20.25;55.27;99023.72;5020910;28;46402;-55
2022/11/16 11:50:33;;;;;;;;;2.75;2.75;;;;;20.26;55.02;99036.03;5020710;28;45386;-55
2022/11/16 11:53:09;;;;;;;;;1.00;1.00;;;;;20.26;55.01;99035.16;5020736;28;45275;-54
2022/11/16 11:55:34;;;;;;;;;4.50;3.00;;;;;20.26;55.09;99024.56;5004181;28;45426;-52
2022/11/16 11:58:01;;;;;;;;;1.00;1.00;;;;;20.28;55.03;99033.28;5020691;28;45410;-52
2022/11/16 12:00:26;;;;;;;;;0.75;0.75;;;;;20.27;55.15;99027.13;5004055;28;45360;-53
2022/11/16 12:03:20;;;;;;;;;0.25;0.00;;;;;20.29;55.47;99030.53;5022054;28;45411;-53
2022/11/16 12:06:21;;;;;;;;;1.00;1.00;;;;;20.31;54.44;99020.69;5021207;28;45553;-49
2022/11/16 12:09:05;;;;;;;;;0.75;0.75;;;;;20.31;54.80;99020.69;5020474;28;45466;-51
2022/11/16 12:11:49;;;;;;;;;3.25;1.00;;;;;20.30;54.82;99026.94;5021971;28;45294;-49
2022/11/16 12:14:39;;;;;;;;;1.00;1.00;;;;;20.31;54.68;99022.50;5021023;28;45247;-52
2022/11/16 12:17:38;;;;;;;;;2.00;1.00;;;;;20.31;54.60;99007.44;5021711;28;45569;-48
2022/11/16 12:20:40;;;;;;;;;4.50;1.75;;;;;20.31;54.67;99015.41;5021358;28;45360;-53
2022/11/16 12:23:26;;;;;;;;;2.50;2.00;;;;;20.32;54.44;99003.84;5020061;28;45367;-51
2022/11/16 12:26:01;;;;;;;;;3.00;3.00;;;;;20.35;54.53;99009.94;5020438;28;45180;-54